createdAt,value
2018-12-26T00:10:36.257Z,-1.00
2018-12-26T00:13:05.713Z,-1.00
2018-12-26T00:16:07.545Z,-1.10
2018-12-26T00:18:56.965Z,-1.30
2018-12-26T00:24:59.574Z,-1.30
2018-12-26T00:30:45.241Z,-1.50
2018-12-26T00:33:41.689Z,-1.50
2018-12-26T00:36:14.778Z,-1.50
2018-12-26T00:38:44.228Z,-1.50
2018-12-26T00:41:15.821Z,-1.50
2018-12-26T00:44:00.337Z,-1.50
2018-12-26T00:46:30.231Z,-1.40
2018-12-26T00:49:04.392Z,-1.40
2018-12-26T00:51:43.631Z,-1.40
2018-12-26T00:54:42.048Z,-1.60
2018-12-26T00:57:55.933Z,-1.60
2018-12-26T01:00:27.179Z,-1.60
2018-12-26T01:02:57.935Z,-1.60
2018-12-26T01:05:45.956Z,-1.60
2018-12-26T01:08:14.832Z,-1.70
2018-12-26T01:15:14.155Z,-1.50
2018-12-26T01:18:12.619Z,-1.40
2018-12-26T01:20:42.110Z,-1.50
2018-12-26T01:23:11.210Z,-1.50
2018-12-26T01:25:40.173Z,-1.50
2018-12-26T01:28:09.406Z,-1.50
2018-12-26T01:30:38.429Z,-1.60
2018-12-26T01:33:07.945Z,-1.60
2018-12-26T01:35:37.258Z,-1.70
2018-12-26T01:38:06.126Z,-1.80
2018-12-26T01:40:35.011Z,-1.70
2018-12-26T01:43:05.230Z,-1.70
2018-12-26T01:45:35.752Z,-1.70
2018-12-26T01:48:05.030Z,-1.80
2018-12-26T01:50:34.496Z,-1.70
2018-12-26T01:53:04.909Z,-1.70
2018-12-26T01:55:34.037Z,-1.70
2018-12-26T01:58:04.071Z,-1.70
2018-12-26T02:00:33.326Z,-1.70
2018-12-26T02:03:02.422Z,-1.70
2018-12-26T02:05:31.358Z,-1.80
2018-12-26T02:08:00.214Z,-1.80
2018-12-26T02:10:31.929Z,-1.80
2018-12-26T02:13:03.867Z,-1.80
2018-12-26T02:15:37.011Z,-1.80
2018-12-26T02:18:06.003Z,-1.80
2018-12-26T02:20:35.484Z,-1.80
2018-12-26T02:23:06.972Z,-1.90
2018-12-26T02:25:36.035Z,-1.90
2018-12-26T02:28:05.037Z,-1.90
2018-12-26T02:30:37.062Z,-1.90
2018-12-26T02:33:06.335Z,-1.90
2018-12-26T02:35:41.514Z,-1.90
2018-12-26T02:38:10.440Z,-2.00
2018-12-26T02:40:44.205Z,-2.00
2018-12-26T02:43:19.234Z,-2.00
2018-12-26T02:45:48.213Z,-1.90
2018-12-26T02:48:17.516Z,-1.90
2018-12-26T02:50:46.900Z,-1.90
2018-12-26T02:53:16.395Z,-1.90
2018-12-26T02:55:48.237Z,-1.90
2018-12-26T02:58:17.650Z,-1.90
2018-12-26T03:00:46.642Z,-1.90
2018-12-26T03:03:16.164Z,-2.00
2018-12-26T03:05:45.357Z,-2.00
2018-12-26T03:08:14.548Z,-1.90
2018-12-26T03:10:44.947Z,-2.00
2018-12-26T03:13:14.193Z,-1.90
2018-12-26T03:15:49.391Z,-1.90
2018-12-26T03:18:18.766Z,-1.80
2018-12-26T03:20:50.593Z,-1.80
2018-12-26T03:23:19.559Z,-1.80
2018-12-26T03:25:50.844Z,-1.90
2018-12-26T03:28:23.994Z,-1.80
2018-12-26T03:31:14.659Z,-1.80
2018-12-26T03:33:47.205Z,-1.70
2018-12-26T03:36:22.856Z,-1.70
2018-12-26T03:39:00.014Z,-1.80
2018-12-26T03:41:29.854Z,-1.90
2018-12-26T03:43:59.056Z,-2.00
2018-12-26T03:47:11.722Z,-2.10
2018-12-26T03:50:17.737Z,-2.10
2018-12-26T03:52:50.153Z,-2.10
2018-12-26T03:55:19.848Z,-2.20
2018-12-26T03:58:59.833Z,-2.30
2018-12-26T04:01:36.036Z,-2.20
2018-12-26T04:04:11.189Z,-2.30
2018-12-26T04:06:40.377Z,-2.30
2018-12-26T04:09:09.633Z,-2.30
2018-12-26T04:11:38.870Z,-2.40
2018-12-26T04:14:08.261Z,-2.40
2018-12-26T04:16:39.135Z,-2.50
2018-12-26T04:19:08.529Z,-2.50
2018-12-26T04:21:38.255Z,-2.50
2018-12-26T04:24:07.435Z,-2.60
2018-12-26T04:26:41.690Z,-2.70
2018-12-26T04:29:10.300Z,-2.60
2018-12-26T04:31:39.304Z,-2.60
2018-12-26T04:34:11.236Z,-2.70
2018-12-26T04:36:40.596Z,-2.70
2018-12-26T04:39:12.870Z,-2.60
2018-12-26T04:41:42.361Z,-2.60
2018-12-26T04:44:15.119Z,-2.60
2018-12-26T04:46:44.534Z,-2.60
2018-12-26T04:49:44.861Z,-2.50
2018-12-26T04:52:14.430Z,-2.60
2018-12-26T04:54:56.427Z,-2.60
2018-12-26T04:57:28.648Z,-2.60
2018-12-26T04:59:57.922Z,-2.70
2018-12-26T05:02:30.242Z,-2.70
2018-12-26T05:05:00.168Z,-2.70
2018-12-26T05:07:29.921Z,-2.70
2018-12-26T05:10:02.738Z,-2.80
2018-12-26T05:12:35.031Z,-2.80
2018-12-26T05:15:08.308Z,-2.90
2018-12-26T05:17:40.369Z,-3.10
2018-12-26T05:20:09.237Z,-3.20
2018-12-26T05:22:38.849Z,-3.30
2018-12-26T05:25:08.075Z,-3.30
2018-12-26T05:27:52.191Z,-3.30
2018-12-26T05:30:21.150Z,-3.30
2018-12-26T05:32:55.594Z,-3.30
2018-12-26T05:35:44.771Z,-3.30
2018-12-26T05:38:33.342Z,-3.40
2018-12-26T05:41:05.628Z,-3.40
2018-12-26T05:43:35.306Z,-3.50
2018-12-26T05:46:20.394Z,-3.40
2018-12-26T05:49:46.842Z,-3.30
2018-12-26T05:52:46.140Z,-3.20
2018-12-26T05:55:15.407Z,-3.40
2018-12-26T05:57:44.423Z,-3.40
2018-12-26T06:00:16.241Z,-3.40
2018-12-26T06:02:45.368Z,-3.40
2018-12-26T06:05:14.531Z,-3.60
2018-12-26T06:07:46.661Z,-3.60
2018-12-26T06:10:21.517Z,-3.50
2018-12-26T06:12:51.173Z,-3.40
2018-12-26T06:15:20.373Z,-3.60
2018-12-26T06:17:56.249Z,-3.40
2018-12-26T06:20:29.298Z,-3.30
2018-12-26T06:22:58.975Z,-3.30
2018-12-26T06:25:28.024Z,-3.40
2018-12-26T06:28:00.029Z,-3.40
2018-12-26T06:30:28.947Z,-3.30
2018-12-26T06:32:58.359Z,-3.40
2018-12-26T06:35:28.050Z,-3.30
2018-12-26T06:38:01.514Z,-3.30
2018-12-26T06:40:31.023Z,-3.40
2018-12-26T06:43:09.298Z,-3.30
2018-12-26T06:45:44.386Z,-3.20
2018-12-26T06:48:13.370Z,-3.20
2018-12-26T06:50:42.313Z,-3.10
2018-12-26T06:53:20.106Z,-3.10
2018-12-26T06:55:49.212Z,-3.10
2018-12-26T06:58:18.470Z,-3.20
2018-12-26T07:00:47.819Z,-3.30
2018-12-26T07:03:16.819Z,-3.40
2018-12-26T07:05:54.867Z,-3.40
2018-12-26T07:08:29.943Z,-3.60
2018-12-26T07:11:03.306Z,-3.70
2018-12-26T07:13:32.210Z,-3.60
2018-12-26T07:16:01.268Z,-3.50
2018-12-26T07:18:34.317Z,-3.40
2018-12-26T07:21:03.299Z,-3.30
2018-12-26T07:23:32.277Z,-3.30
2018-12-26T07:26:01.645Z,-3.40
2018-12-26T07:28:30.993Z,-3.50
2018-12-26T07:31:03.206Z,-3.30
2018-12-26T07:33:32.658Z,-3.20
2018-12-26T07:36:04.446Z,-3.40
2018-12-26T07:38:41.916Z,-3.30
2018-12-26T07:41:11.113Z,-3.20
2018-12-26T07:43:43.241Z,-3.30
2018-12-26T07:46:12.474Z,-3.20
2018-12-26T07:48:42.165Z,-3.10
2018-12-26T07:51:11.290Z,-3.00
2018-12-26T07:53:41.168Z,-2.90
2018-12-26T07:56:10.863Z,-2.90
2018-12-26T07:58:44.355Z,-2.60
2018-12-26T08:01:13.613Z,-2.60
2018-12-26T08:03:45.605Z,-2.60
2018-12-26T08:06:15.166Z,-2.70
2018-12-26T08:08:45.212Z,-2.40
2018-12-26T08:11:14.134Z,-2.60
2018-12-26T08:13:43.909Z,-2.70
2018-12-26T08:16:13.423Z,-2.50
2018-12-26T08:18:45.501Z,-2.50
2018-12-26T08:21:14.833Z,-2.30
2018-12-26T08:23:44.460Z,-2.30
2018-12-26T08:26:16.548Z,-2.40
2018-12-26T08:28:45.496Z,-2.30
2018-12-26T08:31:14.867Z,-2.10
2018-12-26T08:33:47.655Z,-2.30
2018-12-26T08:36:16.754Z,-2.40
2018-12-26T08:38:45.834Z,-2.40
2018-12-26T08:41:18.687Z,-2.20
2018-12-26T08:43:50.829Z,-2.10
2018-12-26T08:46:19.878Z,-2.20
2018-12-26T08:48:48.797Z,-2.20
2018-12-26T08:51:17.849Z,-2.00
2018-12-26T08:53:46.868Z,-2.20
2018-12-26T08:56:15.917Z,-2.10
2018-12-26T08:58:50.787Z,-2.20
2018-12-26T09:01:19.964Z,-2.30
2018-12-26T09:03:48.861Z,-2.20
2018-12-26T09:06:20.633Z,-2.30
2018-12-26T09:08:49.460Z,-2.00
2018-12-26T09:11:21.173Z,-2.00
2018-12-26T09:13:50.056Z,-1.90
2018-12-26T09:16:22.760Z,-1.80
2018-12-26T09:18:51.689Z,-1.70
2018-12-26T09:21:20.680Z,-1.50
2018-12-26T09:23:49.631Z,-1.30
2018-12-26T09:26:18.522Z,-1.30
2018-12-26T09:28:50.584Z,-1.30
2018-12-26T09:31:22.258Z,-1.20
2018-12-26T09:33:57.069Z,-1.00
2018-12-26T09:36:26.261Z,-0.90
2018-12-26T09:38:55.114Z,-0.80
2018-12-26T09:41:24.018Z,-0.60
2018-12-26T09:43:53.498Z,-0.40
2018-12-26T09:46:25.429Z,-0.40
2018-12-26T09:48:54.348Z,-0.40
2018-12-26T09:51:26.700Z,-0.10
2018-12-26T09:53:58.661Z,-0.20
2018-12-26T09:56:30.854Z,-0.30
2018-12-26T09:58:59.849Z,-0.70
2018-12-26T10:01:29.337Z,-0.40
2018-12-26T10:04:01.622Z,0.20
2018-12-26T10:06:34.145Z,0.40
2018-12-26T10:09:03.773Z,0.30
2018-12-26T10:11:39.209Z,0.20
2018-12-26T10:14:11.507Z,0.50
2018-12-26T10:16:43.872Z,0.60
2018-12-26T10:19:16.004Z,0.70
2018-12-26T10:21:45.257Z,0.60
2018-12-26T10:24:18.543Z,0.70
2018-12-26T10:26:45.022Z,0.80
2018-12-26T10:29:14.858Z,1.30
2018-12-26T10:31:46.732Z,1.10
2018-12-26T10:34:18.546Z,1.10
2018-12-26T10:36:50.293Z,0.80
2018-12-26T10:39:19.129Z,1.00
2018-12-26T10:41:51.016Z,0.90
2018-12-26T10:44:22.710Z,0.30
2018-12-26T10:46:54.814Z,0.30
2018-12-26T10:49:27.005Z,0.80
2018-12-26T10:52:03.227Z,1.20
2018-12-26T10:54:32.736Z,1.20
2018-12-26T10:58:18.982Z,1.40
2018-12-26T11:00:56.537Z,0.90
2018-12-26T11:03:25.549Z,0.60
2018-12-26T11:05:54.526Z,0.70
2018-12-26T11:08:23.649Z,0.80
2018-12-26T11:10:55.800Z,0.50
2018-12-26T11:13:33.987Z,0.60
2018-12-26T11:16:03.317Z,0.60
2018-12-26T11:18:32.321Z,0.60
2018-12-26T11:21:07.400Z,0.60
2018-12-26T11:23:36.297Z,0.60
2018-12-26T11:26:05.209Z,0.80
2018-12-26T11:28:34.051Z,1.20
2018-12-26T11:31:02.935Z,1.60
2018-12-26T11:33:37.113Z,1.80
2018-12-26T11:36:05.984Z,1.90
2018-12-26T11:38:35.421Z,1.80
2018-12-26T11:41:05.255Z,2.30
2018-12-26T11:43:34.737Z,2.70
2018-12-26T11:46:03.717Z,2.30
2018-12-26T11:48:36.206Z,2.10
2018-12-26T11:51:08.169Z,2.10
2018-12-26T11:53:36.981Z,2.90
2018-12-26T11:56:08.717Z,3.10
2018-12-26T11:58:37.871Z,2.60
2018-12-26T12:01:07.223Z,2.20
2018-12-26T12:03:40.259Z,2.40
2018-12-26T12:06:12.333Z,2.60
2018-12-26T12:08:41.415Z,2.80
2018-12-26T12:11:10.530Z,2.60
2018-12-26T12:13:42.728Z,2.30
2018-12-26T12:16:14.577Z,1.80
2018-12-26T12:18:43.587Z,1.40
2018-12-26T12:21:18.845Z,1.30
2018-12-26T12:23:47.917Z,1.40
2018-12-26T12:26:17.019Z,1.30
2018-12-26T12:28:46.473Z,1.40
2018-12-26T12:31:32.577Z,1.20
2018-12-26T12:34:01.741Z,0.80
2018-12-26T12:37:02.250Z,0.90
2018-12-26T12:39:44.500Z,1.00
2018-12-26T12:42:15.814Z,1.10
2018-12-26T12:44:48.163Z,1.00
2018-12-26T12:47:17.221Z,0.90
2018-12-26T12:49:48.886Z,0.90
2018-12-26T12:52:21.238Z,0.80
2018-12-26T12:54:50.795Z,0.70
2018-12-26T12:57:19.978Z,0.80
2018-12-26T12:59:51.535Z,0.30
2018-12-26T13:02:20.520Z,0.30
2018-12-26T13:04:49.538Z,0.50
2018-12-26T13:07:18.744Z,0.60
2018-12-26T13:09:48.373Z,0.60
2018-12-26T13:12:17.313Z,0.60
2018-12-26T13:14:51.294Z,0.80
2018-12-26T13:19:59.383Z,0.70
2018-12-26T13:22:30.277Z,0.70
2018-12-26T13:25:00.265Z,0.70
2018-12-26T13:27:32.370Z,0.70
2018-12-26T13:30:05.389Z,0.80
2018-12-26T13:32:49.853Z,0.90
2018-12-26T13:35:19.285Z,0.80
2018-12-26T13:38:35.296Z,0.80
2018-12-26T13:41:05.896Z,0.80
2018-12-26T13:44:00.269Z,0.80
2018-12-26T13:46:37.437Z,0.50
2018-12-26T13:52:46.155Z,0.30
2018-12-26T13:55:14.996Z,0.10
2018-12-26T13:57:43.954Z,0.20
2018-12-26T14:00:13.168Z,0.20
2018-12-26T14:02:42.240Z,0.30
2018-12-26T14:05:11.061Z,0.30
2018-12-26T14:07:40.261Z,0.10
2018-12-26T14:10:12.921Z,0.00
2018-12-26T14:12:44.763Z,0.40
2018-12-26T14:15:23.111Z,0.60
2018-12-26T14:17:52.384Z,0.80
2018-12-26T14:20:21.538Z,0.70
2018-12-26T14:22:50.535Z,0.30
2018-12-26T14:25:19.473Z,0.20
2018-12-26T14:27:48.388Z,0.20
2018-12-26T14:30:20.378Z,0.10
2018-12-26T14:32:49.552Z,0.10
2018-12-26T14:35:21.488Z,-0.10
2018-12-26T14:37:50.334Z,-0.10
2018-12-26T14:40:20.875Z,-0.40
2018-12-26T14:42:49.833Z,-0.10
2018-12-26T14:45:18.817Z,-0.20
2018-12-26T14:47:47.761Z,-0.20
2018-12-26T14:50:19.777Z,-0.20
2018-12-26T14:52:54.879Z,-0.10
2018-12-26T14:55:24.118Z,-0.30
2018-12-26T14:57:53.053Z,-0.30
2018-12-26T15:00:22.544Z,-0.30
2018-12-26T15:02:54.564Z,-0.20
2018-12-26T15:05:23.670Z,-0.40
2018-12-26T15:07:52.797Z,-0.30
2018-12-26T15:10:25.879Z,-0.30
2018-12-26T15:12:58.234Z,-0.20
2018-12-26T15:15:30.713Z,-0.10
2018-12-26T15:18:06.070Z,-0.10
2018-12-26T15:20:35.813Z,-0.10
2018-12-26T15:23:10.916Z,0.10
2018-12-26T15:25:43.461Z,0.20
2018-12-26T15:28:15.574Z,0.20
2018-12-26T15:30:47.813Z,0.20
2018-12-26T15:33:19.624Z,0.30
2018-12-26T15:35:48.586Z,0.30
2018-12-26T15:38:17.574Z,0.20
2018-12-26T15:40:46.540Z,0.00
2018-12-26T15:43:15.621Z,0.00
2018-12-26T15:45:44.725Z,0.00
2018-12-26T15:48:13.805Z,0.00
2018-12-26T15:50:42.858Z,0.00
2018-12-26T15:53:15.136Z,-0.10
2018-12-26T15:55:44.328Z,-0.10
2018-12-26T15:58:16.479Z,-0.10
2018-12-26T16:00:45.908Z,0.10
2018-12-26T16:03:15.326Z,0.00
2018-12-26T16:05:47.382Z,0.00
2018-12-26T16:08:19.455Z,-0.10
2018-12-26T16:10:51.334Z,-0.20
2018-12-26T16:13:20.819Z,-0.20
2018-12-26T16:15:59.226Z,-0.30
2018-12-26T16:18:32.213Z,-0.20
2018-12-26T16:21:01.192Z,-0.40
2018-12-26T16:23:30.160Z,-0.50
2018-12-26T16:26:03.769Z,-0.60
2018-12-26T16:28:33.161Z,-0.60
2018-12-26T16:31:02.294Z,-0.50
2018-12-26T16:33:34.199Z,-0.50
2018-12-26T16:36:06.129Z,-0.50
2018-12-26T16:38:35.583Z,-0.60
2018-12-26T16:41:04.569Z,-0.50
2018-12-26T16:43:33.477Z,-0.50
2018-12-26T16:46:05.653Z,-0.40
2018-12-26T16:48:40.797Z,-0.50
2018-12-26T16:51:09.835Z,-0.50
2018-12-26T16:53:40.693Z,-0.50
2018-12-26T16:56:09.891Z,-0.40
2018-12-26T16:58:44.546Z,-0.50
2018-12-26T17:01:13.377Z,-0.50
2018-12-26T17:03:43.955Z,-0.40
2018-12-26T17:06:13.020Z,-0.40
2018-12-26T17:08:44.967Z,-0.50
2018-12-26T17:11:15.332Z,-0.40
2018-12-26T17:13:46.900Z,-0.30
2018-12-26T17:16:15.800Z,-0.30
2018-12-26T17:18:47.812Z,-0.20
2018-12-26T17:21:19.429Z,-0.40
2018-12-26T17:23:51.644Z,-0.50
2018-12-26T17:26:20.537Z,-0.50
2018-12-26T17:28:49.547Z,-0.40
2018-12-26T17:31:24.816Z,-0.30
2018-12-26T17:33:57.181Z,-0.30
2018-12-26T17:36:28.866Z,-0.20
2018-12-26T17:38:58.043Z,-0.10
2018-12-26T17:41:29.705Z,-0.30
2018-12-26T17:43:58.548Z,-0.20
2018-12-26T17:46:27.484Z,-0.10
2018-12-26T17:49:02.330Z,0.00
2018-12-26T17:51:31.314Z,0.10
2018-12-26T17:54:44.263Z,0.00
2018-12-26T17:57:28.055Z,0.00
2018-12-26T18:00:34.482Z,-0.20
2018-12-26T18:03:06.154Z,-0.30
2018-12-26T18:05:36.292Z,-0.30
2018-12-26T18:08:08.261Z,-0.20
2018-12-26T18:10:37.262Z,-0.10
2018-12-26T18:13:09.814Z,-0.40
2018-12-26T18:15:41.901Z,-0.40
2018-12-26T18:18:17.339Z,-0.30
2018-12-26T18:20:46.487Z,-0.20
2018-12-26T18:23:18.360Z,0.00
2018-12-26T18:25:48.215Z,-0.10
2018-12-26T18:28:23.229Z,-0.20
2018-12-26T18:30:55.657Z,-0.20
2018-12-26T18:33:25.325Z,-0.30
2018-12-26T18:35:54.561Z,-0.40
2018-12-26T18:38:23.725Z,-0.30
2018-12-26T18:40:55.995Z,-0.50
2018-12-26T18:43:24.993Z,-0.60
2018-12-26T18:46:06.172Z,-0.50
2018-12-26T18:48:35.089Z,-0.50
2018-12-26T18:51:07.024Z,-0.50
2018-12-26T18:53:38.681Z,-0.50
2018-12-26T18:56:07.648Z,-0.50
2018-12-26T18:58:36.980Z,-0.70
2018-12-26T19:01:09.904Z,-0.60
2018-12-26T19:03:38.797Z,-0.40
2018-12-26T19:06:11.368Z,-0.40
2018-12-26T19:08:40.557Z,-0.40
2018-12-26T19:11:09.473Z,-0.50
2018-12-26T19:13:38.649Z,-0.60
2018-12-26T19:16:13.717Z,-0.50
2018-12-26T19:18:57.742Z,-0.50
2018-12-26T19:21:29.285Z,-0.60
2018-12-26T19:23:58.140Z,-0.50
2018-12-26T19:26:33.116Z,-0.40
2018-12-26T19:29:08.031Z,-0.30
2018-12-26T19:31:39.743Z,-0.50
2018-12-26T19:34:07.822Z,-0.50
2018-12-26T19:36:36.809Z,-0.60
2018-12-26T19:39:07.436Z,-0.60
2018-12-26T19:41:39.109Z,-0.40
2018-12-26T20:17:08.387Z,-0.10
2018-12-26T20:34:24.934Z,-0.20
2018-12-26T21:24:19.513Z,-0.60
2018-12-26T21:49:49.160Z,-0.70
2018-12-26T21:52:46.618Z,-0.70
2018-12-26T22:02:22.516Z,-1.20
2018-12-26T22:15:29.979Z,-1.10
2018-12-26T22:18:31.444Z,-1.00
2018-12-26T22:21:15.823Z,-1.20
2018-12-26T22:23:55.486Z,-1.10
2018-12-26T22:39:03.585Z,-1.30
2018-12-26T22:48:12.356Z,-1.30
2018-12-26T23:07:39.612Z,-1.00
2018-12-26T23:20:55.905Z,-0.90
2018-12-26T23:23:43.296Z,-0.90
2018-12-26T23:30:34.943Z,-1.10
